Time;durP1;ratioP1;P1;durP2;ratioP2;P2;SDS_P1;SDS_P2;PMS_P1;PMS_P2;Temp;Humidity;BMP_temperature;BMP_pressure;BME280_temperature;BME280_humidity;BME280_pressure;Samples;Min_cycle;Max_cycle;Signal;HPM_P1;HPM_P2
2022/11/17 00:01:18;;;;;;;12.25;3.10;;;;;;;9.83;100.00;98729.13;5072808;28;20052;-58
2022/11/17 00:03:46;;;;;;;14.20;2.90;;;;;;;9.81;100.00;98720.56;5072886;28;20045;-58
2022/11/17 00:06:14;;;;;;;19.60;2.92;;;;;;;9.82;100.00;98716.88;5072434;28;20052;-57
2022/11/17 00:08:41;;;;;;;10.65;3.05;;;;;;;9.79;100.00;98702.22;5072910;28;20078;-58
2022/11/17 00:11:09;;;;;;;13.75;3.17;;;;;;;9.82;100.00;98702.84;5072913;28;20132;-58
2022/11/17 00:16:22;;;;;;;13.38;2.75;;;;;;;9.89;100.00;98677.19;5076770;28;20053;-59
2022/11/17 00:21:36;;;;;;;11.88;2.70;;;;;;;9.95;100.00;98674.56;5076649;28;20048;-58
2022/11/17 00:24:02;;;;;;;12.77;3.00;;;;;;;9.89;100.00;98672.72;5076937;28;20045;-58
2022/11/17 00:26:32;;;;;;;12.07;3.00;;;;;;;9.96;100.00;98668.25;5076137;28;20494;-57
2022/11/17 00:29:01;;;;;;;11.43;2.70;;;;;;;9.88;100.00;98668.44;5076850;28;20050;-58
2022/11/17 00:34:20;;;;;;;10.68;2.63;;;;;;;9.96;100.00;98654.19;5076557;28;20076;-57
2022/11/17 00:36:50;;;;;;;14.95;2.67;;;;;;;9.95;100.00;98649.91;5076418;28;20052;-58
2022/11/17 00:39:20;;;;;;;10.93;2.75;;;;;;;9.86;100.00;98641.34;5076759;28;20054;-57
2022/11/17 00:41:46;;;;;;;12.45;2.60;;;;;;;9.99;100.00;98644.00;5076377;28;20121;-57
2022/11/17 00:44:14;;;;;;;13.00;2.60;;;;;;;9.92;100.00;98639.72;5076391;28;20067;-58
2022/11/17 00:46:41;;;;;;;13.48;3.38;;;;;;;9.97;100.00;98638.09;5076266;28;20041;-57
2022/11/17 00:49:09;;;;;;;12.15;2.40;;;;;;;9.82;100.00;98626.06;5076296;28;20050;-58
2022/11/17 00:51:37;;;;;;;10.85;2.88;;;;;;;9.89;100.00;98618.94;5075974;28;20060;-58
2022/11/17 00:54:06;;;;;;;15.40;2.95;;;;;;;9.86;100.00;98606.09;5075992;28;20110;-58
2022/11/17 00:56:33;;;;;;;15.95;2.63;;;;;;;9.76;100.00;98599.34;5076135;28;20098;-58
2022/11/17 00:59:00;;;;;;;14.30;2.30;;;;;;;9.79;100.00;98606.91;5075921;28;20040;-58
2022/11/17 01:01:26;;;;;;;13.88;2.45;;;;;;;9.88;100.00;98609.38;5074679;28;20054;-58
2022/11/17 01:04:01;;;;;;;9.95;3.10;;;;;;;9.77;100.00;98595.69;5075721;28;20417;-58
2022/11/17 01:06:32;;;;;;;12.02;2.72;;;;;;;9.73;100.00;98586.53;5075420;28;20044;-58
2022/11/17 01:09:00;;;;;;;8.20;2.33;;;;;;;9.76;100.00;98599.34;5076082;28;20052;-58
2022/11/17 01:11:27;;;;;;;11.80;2.55;;;;;;;9.85;100.00;98592.03;5075715;28;20083;-58
2022/11/17 01:13:56;;;;;;;17.42;3.05;;;;;;;9.73;100.00;98594.47;5075602;28;20036;-58
2022/11/17 01:16:23;;;;;;;16.00;2.72;;;;;;;9.74;100.00;98585.50;5075910;28;20047;-58
2022/11/17 01:18:51;;;;;;;7.50;2.47;;;;;;;9.81;100.00;98577.56;5075694;28;20098;-58
2022/11/17 01:21:21;;;;;;;11.82;2.45;;;;;;;9.73;100.00;98581.25;5075651;28;20378;-58
2022/11/17 01:23:51;;;;;;;10.15;2.72;;;;;;;9.74;100.00;98577.56;5074954;28;20047;-58
2022/11/17 01:26:21;;;;;;;11.18;2.40;;;;;;;9.74;100.00;98568.81;5075088;28;20355;-58
2022/11/17 01:28:49;;;;;;;;;;;;;;;9.74;100.00;98561.66;5075734;28;20053;-58
2022/11/17 01:31:21;;;;;;;11.98;2.60;;;;;;;9.73;100.00;98565.34;5075806;28;20293;-58
2022/11/17 01:33:48;;;;;;;9.23;2.67;;;;;;;9.68;100.00;98559.84;5075363;28;20070;-58
2022/11/17 01:36:20;;;;;;;12.10;2.60;;;;;;;9.68;100.00;98549.25;5075481;28;20444;-58
2022/11/17 01:38:47;;;;;;;11.38;2.80;;;;;;;9.71;100.00;98540.09;5075519;28;20041;-58
2022/11/17 01:41:17;;;;;;;11.68;2.70;;;;;;;9.69;100.00;98534.97;5075166;28;20090;-58
2022/11/17 01:43:51;;;;;;;9.40;2.70;;;;;;;9.76;100.00;98516.47;5075503;28;20051;-58
2022/11/17 01:46:40;;;;;;;11.90;2.75;;;;;;;9.74;100.00;98505.25;5074767;28;20046;-58
2022/11/17 01:49:20;;;;;;;10.48;2.40;;;;;;;9.72;100.00;98494.06;5075400;28;20048;-58
2022/11/17 01:51:54;;;;;;;15.60;2.58;;;;;;;9.74;100.00;98500.78;5074807;28;20084;-58
2022/11/17 01:54:26;;;;;;;9.20;2.55;;;;;;;9.78;100.00;98495.88;5075030;28;20562;-58
2022/11/17 01:57:00;;;;;;;10.50;2.65;;;;;;;9.67;100.00;98492.00;5074896;28;20127;-58
2022/11/17 01:59:32;;;;;;;9.85;2.53;;;;;;;9.82;100.00;98486.50;5075275;28;20048;-57
2022/11/17 02:01:59;;;;;;;14.40;3.00;;;;;;;9.77;100.00;98483.69;5074637;28;20054;-58
2022/11/17 02:04:32;;;;;;;9.38;2.42;;;;;;;9.75;100.00;98483.06;5074711;28;20040;-58
2022/11/17 02:07:08;;;;;;;9.93;2.55;;;;;;;9.75;100.00;98480.41;5073877;28;20402;-58
2022/11/17 02:09:38;;;;;;;9.38;2.50;;;;;;;9.71;100.00;98485.28;5074722;28;20075;-58
2022/11/17 02:12:08;;;;;;;14.30;2.60;;;;;;;9.75;100.00;98488.34;5090037;28;20041;-58
2022/11/17 02:14:35;;;;;;;12.70;2.67;;;;;;;9.68;100.00;98476.94;5074675;28;20052;-58
2022/11/17 02:17:02;;;;;;;10.85;2.58;;;;;;;9.80;100.00;98475.31;5074768;28;20055;-58
2022/11/17 02:19:38;;;;;;;11.05;2.55;;;;;;;9.78;100.00;98469.41;5074443;28;20052;-59
2022/11/17 02:22:31;;;;;;;8.15;2.35;;;;;;;9.77;100.00;98467.81;5074429;28;20041;-58
2022/11/17 02:27:50;;;;;;;19.25;2.72;;;;;;;9.78;100.00;98466.75;5111185;27;20780;-57
2022/11/17 02:30:20;;;;;;;9.65;2.83;;;;;;;9.79;100.00;98457.81;5111135;28;20075;-57
2022/11/17 02:33:12;;;;;;;8.38;2.47;;;;;;;9.82;100.00;98449.44;5110540;28;20048;-57
2022/11/17 02:35:46;;;;;;;;;;;;;;;9.87;100.00;98448.84;5111748;28;20477;-57
2022/11/17 02:41:11;;;;;;;10.50;2.72;;;;;;;9.86;100.00;98433.97;5111361;27;20347;-59
2022/11/17 02:44:17;;;;;;;7.85;2.40;;;;;;;9.97;100.00;98439.47;5110969;28;20082;-58
2022/11/17 02:46:54;;;;;;;11.60;2.40;;;;;;;9.82;100.00;98436.19;5110916;28;20043;-58
2022/11/17 02:49:28;;;;;;;11.73;2.60;;;;;;;9.73;100.00;98440.91;5110701;28;20067;-58
2022/11/17 02:51:57;;;;;;;7.22;2.13;;;;;;;9.74;100.00;98424.00;5111065;28;20052;-58
2022/11/17 02:54:27;;;;;;;9.52;2.45;;;;;;;9.69;100.00;98423.78;5110879;28;20382;-58
2022/11/17 02:56:54;;;;;;;8.73;2.22;;;;;;;9.70;100.00;98420.13;5110834;28;20054;-58
2022/11/17 02:59:26;;;;;;;9.95;2.58;;;;;;;9.67;100.00;98419.72;5110614;28;20055;-58
2022/11/17 03:02:12;;;;;;;11.93;2.90;;;;;;;9.63;100.00;98421.97;5110695;28;20066;-58
2022/11/17 03:04:49;;;;;;;8.15;2.45;;;;;;;9.59;100.00;98413.63;5110356;28;20050;-58
2022/11/17 03:10:32;;;;;;;7.65;2.50;;;;;;;9.68;100.00;98401.00;5110894;27;20113;-58
2022/11/17 03:13:29;;;;;;;10.75;2.47;;;;;;;9.68;100.00;98403.66;5109876;28;20036;-58
2022/11/17 03:16:36;;;;;;;8.85;2.65;;;;;;;9.59;100.00;98402.22;5110907;28;20040;-58
2022/11/17 03:19:43;;;;;;;7.75;2.58;;;;;;;9.64;100.00;98388.38;5110688;28;20059;-58
2022/11/17 03:22:21;;;;;;;9.60;2.80;;;;;;;9.57;100.00;98380.44;5110343;28;20043;-57
2022/11/17 03:24:51;;;;;;;8.82;2.42;;;;;;;9.66;100.00;98379.22;5111061;28;20048;-58
2022/11/17 03:27:24;;;;;;;6.70;2.63;;;;;;;9.61;100.00;98389.59;5110745;28;20096;-58
2022/11/17 03:29:56;;;;;;;14.93;2.90;;;;;;;9.66;100.00;98381.03;5110399;28;20035;-58
2022/11/17 03:32:26;;;;;;;12.70;2.80;;;;;;;9.66;100.00;98375.72;5110865;28;20061;-58
2022/11/17 03:34:57;;;;;;;11.15;2.90;;;;;;;9.66;100.00;98365.97;5109420;28;20581;-58
2022/11/17 03:37:30;;;;;;;9.18;2.65;;;;;;;9.61;100.00;98361.28;5111024;28;20123;-58
2022/11/17 03:40:02;;;;;;;11.48;3.83;;;;;;;9.65;100.00;98358.25;5110442;28;20135;-58
2022/11/17 03:42:33;;;;;;;10.38;3.28;;;;;;;9.68;100.00;98356.00;5110596;28;20048;-58
2022/11/17 03:45:05;;;;;;;12.55;2.58;;;;;;;9.69;100.00;98357.59;5110436;28;20047;-58
2022/11/17 03:47:33;;;;;;;9.88;2.70;;;;;;;9.68;100.00;98356.00;5110393;28;20396;-58
2022/11/17 03:50:08;;;;;;;11.65;2.50;;;;;;;9.64;100.00;98340.72;5092093;28;20485;-58
2022/11/17 03:52:37;;;;;;;8.63;2.47;;;;;;;9.68;100.00;98341.91;5110425;28;20044;-58
2022/11/17 03:55:05;;;;;;;7.63;2.22;;;;;;;9.69;100.00;98344.38;5110372;28;20063;-58
2022/11/17 03:57:40;;;;;;;10.57;2.60;;;;;;;9.70;100.00;98340.72;5109594;28;20416;-58
2022/11/17 04:00:10;;;;;;;7.38;2.35;;;;;;;9.74;100.00;98339.28;5110372;28;20048;-58
2022/11/17 04:02:42;;;;;;;10.52;2.30;;;;;;;9.67;100.00;98342.97;5110021;28;20050;-58
2022/11/17 04:05:10;;;;;;;8.57;2.30;;;;;;;9.60;100.00;98329.72;5109721;28;20044;-58
2022/11/17 04:07:41;;;;;;;6.43;2.13;;;;;;;9.61;100.00;98334.81;5107685;28;20466;-58
2022/11/17 04:10:11;;;;;;;6.88;2.10;;;;;;;9.70;100.00;98335.41;5109961;28;20039;-58
2022/11/17 04:15:57;;;;;;;7.85;2.30;;;;;;;9.55;100.00;98318.94;5109639;28;20492;-58
2022/11/17 04:18:12;;;;;;;9.20;2.58;;;;;;;9.55;100.00;98319.78;5109618;28;20501;-58
2022/11/17 04:20:38;;;;;;;5.78;1.77;;;;;;;9.65;100.00;98332.56;5100305;28;20039;-58
2022/11/17 04:23:10;;;;;;;10.30;2.08;;;;;;;9.50;100.00;98319.56;5095084;28;20044;-58
2022/11/17 04:28:43;;;;;;;6.38;2.03;;;;;;;9.55;100.00;98309.19;5094923;28;20163;-58
2022/11/17 04:31:15;;;;;;;8.45;2.13;;;;;;;9.56;100.00;98323.22;5094958;28;20394;-58
2022/11/17 04:33:45;;;;;;;7.88;2.45;;;;;;;9.45;100.00;98311.44;5094863;28;20567;-57
2022/11/17 04:36:14;;;;;;;6.25;2.20;;;;;;;9.43;100.00;98304.72;5096232;28;20036;-57
2022/11/17 04:38:43;;;;;;;7.18;2.20;;;;;;;9.46;100.00;98304.31;5096015;28;20482;-58
2022/11/17 04:44:00;;;;;;;8.27;2.58;;;;;;;9.40;100.00;98303.28;5095255;28;20066;-57
2022/11/17 04:46:29;;;;;;;10.90;2.08;;;;;;;9.39;100.00;98296.41;5095833;28;20485;-58
2022/11/17 04:48:56;;;;;;;5.43;2.15;;;;;;;9.37;100.00;98293.13;5094280;28;20043;-58
2022/11/17 04:51:24;;;;;;;10.00;2.25;;;;;;;9.38;100.00;98289.47;5094578;28;20044;-58
2022/11/17 04:53:53;;;;;;;7.57;2.40;;;;;;;9.35;100.00;98282.75;5095432;28;20435;-59
2022/11/17 04:56:20;;;;;;;7.68;2.00;;;;;;;9.51;100.00;98288.63;5095262;28;20040;-59
2022/11/17 04:58:48;;;;;;;11.63;3.17;;;;;;;9.44;100.00;98290.47;5095304;28;20037;-59
2022/11/17 05:01:17;;;;;;;7.75;2.10;;;;;;;9.54;100.00;98285.56;5095440;28;20040;-60
2022/11/17 05:03:46;;;;;;;8.18;2.33;;;;;;;9.51;100.00;98289.44;5095432;28;20040;-59
2022/11/17 05:06:17;;;;;;;7.50;2.00;;;;;;;9.52;100.00;98291.06;5094467;28;20047;-59
2022/11/17 05:08:44;;;;;;;10.05;2.40;;;;;;;9.58;100.00;98290.22;5095097;28;20050;-59
2022/11/17 05:13:59;;;;;;;12.05;2.35;;;;;;;9.65;100.00;98300.81;5094915;28;20054;-59
2022/11/17 05:19:17;;;;;;;6.43;2.22;;;;;;;9.62;100.00;98306.50;5095008;28;20401;-59
2022/11/17 05:21:43;;;;;;;7.63;2.13;;;;;;;9.67;100.00;98300.59;5095129;28;20078;-59
2022/11/17 05:24:13;;;;;;;8.23;2.20;;;;;;;9.72;100.00;98300.81;5094848;28;20647;-59
2022/11/17 05:26:42;;;;;;;8.15;2.38;;;;;;;9.63;100.00;98288.81;5094358;28;20071;-59
2022/11/17 05:29:11;;;;;;;9.20;3.65;;;;;;;9.60;100.00;98276.78;5093444;28;20043;-59
2022/11/17 05:31:38;;;;;;;9.43;2.50;;;;;;;9.55;100.00;98272.13;5093805;28;20044;-59
2022/11/17 05:34:07;;;;;;;11.95;2.50;;;;;;;9.52;100.00;98271.75;5094655;28;20051;-59
2022/11/17 05:36:34;;;;;;;10.07;2.15;;;;;;;9.54;100.00;98272.34;5094659;28;20052;-59
2022/11/17 05:39:02;;;;;;;10.25;2.60;;;;;;;9.56;100.00;98272.94;5094599;28;20044;-59
2022/11/17 05:41:28;;;;;;;9.82;2.45;;;;;;;9.55;100.00;98271.28;5094377;28;20051;-59
2022/11/17 05:43:56;;;;;;;9.57;2.70;;;;;;;9.58;100.00;98273.53;5093138;28;20055;-59
2022/11/17 05:46:23;;;;;;;10.68;2.95;;;;;;;9.58;100.00;98284.94;5094224;28;20072;-58
2022/11/17 05:48:51;;;;;;;10.80;2.83;;;;;;;9.63;100.00;98281.69;5094614;28;20043;-58
2022/11/17 05:51:21;;;;;;;8.40;2.67;;;;;;;9.58;100.00;98286.78;5094188;28;20048;-61
2022/11/17 05:53:48;;;;;;;8.48;2.60;;;;;;;9.67;100.00;98287.38;5094423;28;20066;-58
2022/11/17 05:56:54;;;;;;;12.10;3.00;;;;;;;9.67;100.00;98282.88;5093710;28;20036;-59
2022/11/17 06:02:05;;;;;;;7.00;2.60;;;;;;;9.81;100.00;98296.91;5090227;28;20340;-60
2022/11/17 06:04:32;;;;;;;11.90;3.00;;;;;;;9.68;100.00;98304.84;5090517;28;20123;-61
2022/11/17 06:07:00;;;;;;;8.82;2.42;;;;;;;9.72;100.00;98298.16;5089549;28;20044;-59
2022/11/17 06:09:30;;;;;;;8.40;2.60;;;;;;;9.65;100.00;98305.28;5090137;28;20044;-58
2022/11/17 06:11:57;;;;;;;9.10;2.65;;;;;;;9.72;100.00;98314.03;5089301;28;20040;-59
2022/11/17 06:14:26;;;;;;;12.15;2.85;;;;;;;9.78;100.00;98306.06;5089073;28;20126;-58
2022/11/17 06:17:00;;;;;;;8.85;3.05;;;;;;;9.71;100.00;98299.97;5090094;28;20448;-59
2022/11/17 06:19:35;;;;;;;11.05;2.55;;;;;;;9.75;100.00;98311.78;5088996;28;20071;-58
2022/11/17 06:22:03;;;;;;;8.00;2.25;;;;;;;9.77;100.00;98312.38;5090573;28;20123;-59
2022/11/17 06:24:38;;;;;;;8.48;2.67;;;;;;;9.69;100.00;98319.75;5089922;28;20101;-60
2022/11/17 06:27:05;;;;;;;13.60;3.72;;;;;;;9.83;100.00;98309.94;5090055;28;20044;-59
2022/11/17 06:29:32;;;;;;;9.90;2.70;;;;;;;9.79;100.00;98318.28;5089147;28;20439;-58
2022/11/17 06:31:59;;;;;;;11.68;2.88;;;;;;;9.83;100.00;98315.22;5088614;28;20105;-58
2022/11/17 06:34:27;;;;;;;12.48;4.45;;;;;;;9.88;100.00;98313.59;5088647;28;20044;-58
2022/11/17 06:36:54;;;;;;;9.27;2.50;;;;;;;9.85;100.00;98326.44;5088622;28;20058;-58
2022/11/17 06:39:21;;;;;;;7.53;2.30;;;;;;;9.92;100.00;98319.28;5090080;28;20132;-58
2022/11/17 06:41:48;;;;;;;8.52;2.20;;;;;;;9.98;100.00;98311.28;5089542;28;20062;-58
2022/11/17 06:44:14;;;;;;;7.68;2.40;;;;;;;10.08;100.00;98326.75;5089541;28;20052;-59
2022/11/17 06:46:41;;;;;;;8.63;2.30;;;;;;;10.06;100.00;98333.28;5089400;28;20044;-58
2022/11/17 06:49:10;;;;;;;8.55;2.30;;;;;;;10.00;100.00;98334.91;5087773;28;20045;-58
2022/11/17 06:51:37;;;;;;;7.32;2.15;;;;;;;10.12;100.00;98338.56;5089013;28;20044;-59
2022/11/17 06:54:08;;;;;;;9.32;2.72;;;;;;;10.05;100.00;98331.66;5089069;28;20036;-58
2022/11/17 06:56:35;;;;;;;9.52;2.83;;;;;;;10.01;100.00;98333.91;5089025;28;20075;-58
2022/11/17 06:59:02;;;;;;;8.38;2.35;;;;;;;10.14;100.00;98339.16;5088406;28;20089;-59
2022/11/17 07:01:29;;;;;;;12.27;3.08;;;;;;;10.03;100.00;98337.16;5088845;28;20044;-58
2022/11/17 07:03:56;;;;;;;12.95;3.20;;;;;;;9.91;100.00;98336.97;5089484;28;20131;-58
2022/11/17 07:06:23;;;;;;;10.90;2.60;;;;;;;10.00;100.00;98340.22;5088133;28;20055;-58
2022/11/17 07:08:49;;;;;;;10.20;2.70;;;;;;;10.01;100.00;98339.22;5069037;28;20072;-59
2022/11/17 07:11:16;;;;;;;14.27;2.75;;;;;;;10.00;100.00;98337.56;5067074;28;20045;-58
2022/11/17 07:13:43;;;;;;;12.95;2.80;;;;;;;10.02;100.00;98340.00;5055434;28;20052;-59
2022/11/17 07:16:13;;;;;;;9.85;2.65;;;;;;;10.04;100.00;98349.41;5055705;28;20053;-58
2022/11/17 07:18:42;;;;;;;13.18;2.70;;;;;;;9.99;100.00;98349.19;5055547;28;20049;-59
2022/11/17 07:21:12;;;;;;;12.27;3.40;;;;;;;9.94;100.00;98357.75;5054037;28;20044;-59
2022/11/17 07:23:41;;;;;;;11.77;3.08;;;;;;;10.02;100.00;98366.50;5055762;28;20049;-59
2022/11/17 07:26:08;;;;;;;9.75;2.67;;;;;;;10.13;100.00;98379.94;5062414;28;20444;-59
2022/11/17 07:28:34;;;;;;;14.10;2.80;;;;;;;10.18;100.00;98385.38;5075335;28;20045;-59
2022/11/17 07:31:04;;;;;;;18.25;2.97;;;;;;;10.07;100.00;98385.25;5053886;28;20117;-59
2022/11/17 07:33:32;;;;;;;12.50;2.90;;;;;;;9.92;100.00;98381.00;5059165;28;20056;-59
2022/11/17 07:36:11;;;;;;;10.35;2.90;;;;;;;9.98;100.00;98382.81;5063775;28;20041;-59
2022/11/17 07:38:38;;;;;;;14.00;3.28;;;;;;;9.95;100.00;98369.16;5069031;28;20052;-58
2022/11/17 07:41:06;;;;;;;17.00;6.05;;;;;;;9.96;100.00;98371.59;5072615;28;20049;-58
2022/11/17 07:43:34;;;;;;;9.57;3.25;;;;;;;9.99;100.00;98378.34;5064776;28;20045;-58
2022/11/17 07:46:03;;;;;;;72.60;25.08;;;;;;;10.06;100.00;98397.69;5063796;28;20060;-64
2022/11/17 07:48:31;;;;;;;14.27;4.07;;;;;;;10.08;100.00;98408.88;5063220;28;20568;-58
2022/11/17 07:50:59;;;;;;;15.57;3.75;;;;;;;10.16;100.00;98419.22;5078055;28;20044;-58
2022/11/17 07:53:26;;;;;;;13.55;3.15;;;;;;;9.98;100.00;98419.88;5048367;28;20154;-57
2022/11/17 07:55:54;;;;;;;7.68;2.92;;;;;;;9.97;100.00;98397.09;5084032;28;20040;-58
2022/11/17 07:58:24;;;;;;;7.15;2.00;;;;;;;9.88;100.00;98389.56;5073384;28;20401;-57
2022/11/17 08:00:51;;;;;;;8.07;2.00;;;;;;;10.03;100.00;98407.88;5075708;28;20056;-57
2022/11/17 08:03:17;;;;;;;8.38;1.88;;;;;;;10.18;100.00;98417.19;5054325;28;20045;-58
2022/11/17 08:05:44;;;;;;;4.55;1.65;;;;;;;10.15;99.82;98428.22;5079224;28;20055;-57
2022/11/17 08:08:12;;;;;;;8.00;1.60;;;;;;;10.21;99.76;98431.06;5064157;28;20048;-57
2022/11/17 08:10:38;;;;;;;4.90;1.60;;;;;;;10.22;98.98;98432.69;5061950;28;20040;-58
2022/11/17 08:13:06;;;;;;;7.05;1.90;;;;;;;10.21;99.50;98431.88;5085692;28;20056;-57
2022/11/17 08:15:33;;;;;;;8.55;1.85;;;;;;;10.24;98.57;98436.75;5072429;28;20051;-58
2022/11/17 08:18:01;;;;;;;10.43;2.00;;;;;;;10.19;99.98;98439.22;5044270;28;20445;-57
2022/11/17 08:20:28;;;;;;;5.80;1.77;;;;;;;10.22;99.03;98446.72;5076573;28;20041;-55
2022/11/17 08:22:55;;;;;;;6.25;2.20;;;;;;;10.34;99.07;98447.75;5081469;28;20040;-57
2022/11/17 08:25:24;;;;;;;9.25;1.92;;;;;;;10.24;98.58;98450.00;5065079;28;20050;-57
2022/11/17 08:27:58;;;;;;;7.93;1.52;;;;;;;10.34;96.34;98447.75;5075660;28;20053;-57
2022/11/17 08:30:25;;;;;;;8.18;1.52;;;;;;;10.40;97.28;98450.59;5077186;28;20035;-57
2022/11/17 08:32:53;;;;;;;9.25;1.75;;;;;;;10.34;94.98;98454.91;5053371;28;20044;-57
2022/11/17 08:35:23;;;;;;;11.20;1.80;;;;;;;10.36;95.88;98460.81;5085784;28;20074;-58
2022/11/17 08:37:50;;;;;;;11.88;1.98;;;;;;;10.25;96.47;98458.78;5080007;28;20127;-58
2022/11/17 08:40:17;;;;;;;8.40;2.33;;;;;;;10.22;96.33;98459.97;5087584;28;20055;-58
2022/11/17 08:42:44;;;;;;;7.60;1.80;;;;;;;10.19;97.33;98463.06;5077588;28;20051;-59
2022/11/17 08:45:11;;;;;;;11.02;2.17;;;;;;;10.28;96.38;98463.66;5052232;28;20080;-59
2022/11/17 08:47:38;;;;;;;7.80;1.80;;;;;;;10.41;95.28;98461.00;5051676;28;20057;-59
2022/11/17 08:50:06;;;;;;;7.22;1.70;;;;;;;10.30;95.96;98465.06;5048732;28;20052;-59
2022/11/17 08:52:33;;;;;;;9.82;2.00;;;;;;;10.23;96.01;98461.63;5068368;28;20486;-59
2022/11/17 08:55:00;;;;;;;9.93;1.70;;;;;;;10.45;94.84;98478.09;5048485;28;20095;-58
2022/11/17 08:57:30;;;;;;;7.93;2.22;;;;;;;10.48;94.21;98475.03;5059959;28;20045;-58
2022/11/17 08:59:57;;;;;;;8.52;1.80;;;;;;;10.43;95.70;98472.19;5045203;28;20106;-59
2022/11/17 09:02:25;;;;;;;7.63;1.50;;;;;;;10.46;93.59;98481.56;5052619;28;20048;-59
2022/11/17 09:04:51;;;;;;;9.15;1.83;;;;;;;10.42;96.92;98481.16;5063952;28;20397;-59
2022/11/17 09:07:18;;;;;;;7.65;1.65;;;;;;;10.52;94.49;98486.84;5067958;28;20050;-58
2022/11/17 09:09:45;;;;;;;5.85;1.60;;;;;;;10.56;93.00;98488.06;5072828;28;20048;-60
2022/11/17 09:12:12;;;;;;;5.82;1.90;;;;;;;10.69;91.04;98494.34;5067999;28;20048;-59
2022/11/17 09:14:39;;;;;;;9.13;2.00;;;;;;;10.71;91.73;98493.13;5064249;28;20056;-58
2022/11/17 09:17:06;;;;;;;9.20;2.03;;;;;;;10.72;92.45;98500.03;5045195;28;20091;-59
2022/11/17 09:19:33;;;;;;;8.43;1.90;;;;;;;10.64;92.27;98500.28;5069339;28;20037;-58
2022/11/17 09:22:00;;;;;;;10.82;2.40;;;;;;;10.70;90.01;98507.41;5067766;28;20477;-58
2022/11/17 09:24:26;;;;;;;11.00;2.05;;;;;;;10.74;90.74;98508.59;5055066;28;20044;-58
2022/11/17 09:26:56;;;;;;;7.55;1.83;;;;;;;10.80;89.54;98517.56;5056906;28;20102;-58
2022/11/17 09:29:23;;;;;;;8.95;1.75;;;;;;;10.83;91.02;98521.63;5056238;28;20083;-58
2022/11/17 09:31:49;;;;;;;8.52;1.67;;;;;;;10.87;89.77;98523.66;5065245;28;20032;-59
2022/11/17 09:34:16;;;;;;;5.75;1.40;;;;;;;10.84;87.32;98534.69;5063055;28;20068;-58
2022/11/17 09:36:43;;;;;;;7.25;1.52;;;;;;;11.02;86.11;98530.53;5064595;28;20091;-59
2022/11/17 09:39:10;;;;;;;12.38;1.77;;;;;;;10.99;86.17;98526.47;5070615;28;20051;-58
2022/11/17 09:41:43;;;;;;;9.20;1.90;;;;;;;11.07;89.60;98539.47;5067068;28;20098;-58
2022/11/17 09:44:38;;;;;;;6.13;1.40;;;;;;;11.19;85.42;98544.13;5061915;28;20041;-57
2022/11/17 09:47:18;;;;;;;6.75;1.60;;;;;;;11.15;83.01;98543.72;5068670;28;20052;-58
2022/11/17 09:49:55;;;;;;;8.18;1.75;;;;;;;11.17;83.54;98547.00;5055639;28;20051;-58
2022/11/17 09:53:04;;;;;;;7.90;1.63;;;;;;;11.22;80.89;98543.72;5089555;28;20047;-60
2022/11/17 09:55:37;;;;;;;6.28;1.40;;;;;;;11.28;79.96;98548.19;5067652;28;20138;-57
2022/11/17 09:58:44;;;;;;;3.50;1.20;;;;;;;11.22;81.40;98547.16;5059539;28;20047;-57
2022/11/17 10:01:15;;;;;;;4.13;1.65;;;;;;;11.39;80.42;98552.81;5052794;28;20406;-57
2022/11/17 10:03:45;;;;;;;5.38;1.38;;;;;;;11.40;76.78;98556.28;5063896;28;20777;-57
2022/11/17 10:06:19;;;;;;;4.78;1.40;;;;;;;11.46;77.54;98550.09;5075251;28;20115;-58
2022/11/17 10:09:01;;;;;;;4.63;1.50;;;;;;;11.34;77.73;98560.59;5063045;28;20476;-58
2022/11/17 10:11:32;;;;;;;6.05;1.30;;;;;;;11.36;76.45;98563.06;5064817;28;20048;-58
2022/11/17 10:14:18;;;;;;;5.63;1.30;;;;;;;11.41;75.63;98555.28;5065952;28;20566;-57
2022/11/17 10:17:00;;;;;;;5.63;1.38;;;;;;;11.31;77.41;98567.16;5080278;28;20067;-58
2022/11/17 10:19:30;;;;;;;4.93;1.40;;;;;;;11.38;75.84;98577.72;5060583;28;20051;-57
2022/11/17 10:24:54;;;;;;;6.15;1.77;;;;;;;11.49;75.83;98582.34;5116761;27;20729;-57
2022/11/17 10:27:28;;;;;;;5.32;1.48;;;;;;;11.39;75.93;98584.69;5112158;28;20091;-57
2022/11/17 10:29:57;;;;;;;5.57;1.60;;;;;;;11.41;76.85;98581.81;5106589;28;20035;-57
2022/11/17 10:32:25;;;;;;;5.82;1.33;;;;;;;11.54;75.47;98587.03;5116449;28;20054;-57
2022/11/17 10:34:53;;;;;;;4.68;1.42;;;;;;;11.48;76.09;98601.97;5085000;27;20053;-59
2022/11/17 10:37:24;;;;;;;6.90;1.48;;;;;;;11.53;76.60;98593.38;5095870;28;20040;-59
2022/11/17 10:40:19;;;;;;;6.15;1.52;;;;;;;11.59;75.36;98579.25;5113742;28;20051;-59
2022/11/17 10:43:15;;;;;;;7.78;1.20;;;;;;;11.63;74.60;98590.28;5108722;28;20054;-58
2022/11/17 10:45:47;;;;;;;3.58;1.10;;;;;;;11.59;75.56;98589.88;5117421;27;20055;-59
2022/11/17 10:48:35;;;;;;;3.85;1.13;;;;;;;11.57;76.77;98591.09;5082226;28;21054;-59
2022/11/17 10:51:21;;;;;;;5.03;1.45;;;;;;;11.71;75.45;98592.66;5096382;28;20047;-59
2022/11/17 10:54:10;;;;;;;4.25;1.35;;;;;;;11.59;77.17;98592.53;5100933;28;20043;-59
2022/11/17 10:56:42;;;;;;;6.15;1.55;;;;;;;11.69;75.00;98592.88;5103160;28;20408;-57
2022/11/17 10:59:15;;;;;;;6.95;1.80;;;;;;;11.70;75.90;98585.72;5109137;28;20100;-57
2022/11/17 11:01:46;;;;;;;2.83;1.15;;;;;;;11.79;74.04;98587.09;5119934;28;20047;-58
2022/11/17 11:04:34;;;;;;;8.57;1.60;;;;;;;11.77;74.35;98589.16;5117379;27;20324;-58
2022/11/17 11:07:21;;;;;;;12.38;1.42;;;;;;;11.89;72.91;98608.69;5115016;28;20066;-58
2022/11/17 11:10:28;;;;;;;5.88;1.50;;;;;;;11.96;73.72;98607.88;5106049;27;20494;-58
2022/11/17 11:13:34;;;;;;;6.00;1.50;;;;;;;12.02;73.39;98596.38;5118817;27;20040;-58
2022/11/17 11:16:01;;;;;;;7.85;1.83;;;;;;;11.92;72.98;98610.13;5123731;27;20228;-58
2022/11/17 11:18:29;;;;;;;6.80;1.45;;;;;;;11.91;72.47;98605.84;5116159;27;20040;-58
2022/11/17 11:21:20;;;;;;;5.55;1.25;;;;;;;11.98;73.04;98606.63;5091777;28;20060;-59
2022/11/17 11:24:14;;;;;;;4.50;1.60;;;;;;;12.19;71.75;98607.31;5107641;28;20137;-58
2022/11/17 11:26:55;;;;;;;7.93;1.70;;;;;;;12.14;71.27;98602.63;5103932;28;20146;-59
2022/11/17 11:29:37;;;;;;;4.47;1.30;;;;;;;12.15;73.22;98604.25;5106172;28;20051;-59
2022/11/17 11:32:29;;;;;;;4.88;1.38;;;;;;;12.04;71.83;98613.75;5100119;28;20613;-58
2022/11/17 11:35:36;;;;;;;3.95;1.50;;;;;;;11.95;73.46;98616.84;5091942;28;20051;-59
2022/11/17 11:38:29;;;;;;;9.32;1.75;;;;;;;11.83;73.18;98617.53;5098382;28;20070;-59
2022/11/17 11:41:36;;;;;;;5.45;1.67;;;;;;;11.89;73.65;98629.94;5096086;28;20307;-59
2022/11/17 11:47:20;;;;;;;8.32;1.60;;;;;;;11.95;72.85;98619.50;5085822;28;20368;-57
2022/11/17 11:49:55;;;;;;;4.13;1.40;;;;;;;11.97;73.37;98628.09;5074450;28;20052;-57
2022/11/17 11:52:26;;;;;;;7.55;1.50;;;;;;;12.02;74.21;98629.06;5053439;28;20032;-57
2022/11/17 11:54:59;;;;;;;5.00;1.55;;;;;;;12.04;72.79;98631.50;5068959;28;20119;-57
2022/11/17 11:57:34;;;;;;;4.57;1.38;;;;;;;12.06;71.29;98632.09;5064390;28;20375;-60
2022/11/17 12:00:05;;;;;;;4.93;1.20;;;;;;;12.21;70.86;98643.25;5067119;28;20049;-58
2022/11/17 12:02:52;;;;;;;7.43;1.60;;;;;;;12.22;70.79;98638.75;5084372;27;1155938;-59
2022/11/17 12:06:38;;;;;;;3.78;1.20;;;;;;;12.13;71.47;98627.56;5094285;28;20554;-59
2022/11/17 12:08:58;;;;;;;6.90;1.50;;;;;;;12.17;71.70;98643.88;5094630;28;20135;-58
2022/11/17 12:14:17;;;;;;;4.97;1.40;;;;;;;12.06;74.03;98646.22;5089728;28;20040;-58
2022/11/17 12:16:46;;;;;;;4.03;1.38;;;;;;;12.06;70.43;98648.88;5094469;28;20051;-58
2022/11/17 12:19:54;;;;;;;8.80;1.83;;;;;;;12.14;73.11;98647.00;5107901;28;20050;-58
2022/11/17 12:22:47;;;;;;;12.02;1.85;;;;;;;12.01;73.01;98648.72;5093123;28;20094;-58
2022/11/17 12:25:28;;;;;;;6.20;1.50;;;;;;;12.01;70.79;98650.56;5100957;28;20050;-58
2022/11/17 12:27:55;;;;;;;9.07;1.58;;;;;;;11.98;70.06;98646.47;5087322;28;20048;-59
2022/11/17 12:33:20;;;;;;;7.75;1.50;;;;;;;11.86;70.52;98653.47;5125871;27;20147;-57
2022/11/17 12:36:15;;;;;;;7.80;1.30;;;;;;;11.94;70.88;98649.78;5081583;28;20439;-58
2022/11/17 12:38:42;;;;;;;6.90;1.23;;;;;;;11.93;68.55;98653.47;5086243;28;20044;-58
2022/11/17 12:41:08;;;;;;;4.75;1.38;;;;;;;11.86;68.98;98656.13;5103571;28;20603;-58